createdAt,value
2023-11-06T00:00:52.301Z,96268.53
2023-11-06T00:03:25.425Z,96274.69
2023-11-06T00:05:59.133Z,96292.63
2023-11-06T00:08:32.414Z,96295.28
2023-11-06T00:21:24.797Z,96327.53
2023-11-06T00:24:06.118Z,96327.53
2023-11-06T00:26:39.359Z,96338.16
2023-11-06T00:29:13.183Z,96334.84
2023-11-06T00:31:46.422Z,96346.47
2023-11-06T00:34:20.220Z,96345.78
2023-11-06T00:36:55.474Z,96361.75
2023-11-06T00:49:44.132Z,96381.13
2023-11-06T00:52:26.142Z,96390.94
2023-11-06T00:54:59.392Z,96402.56
2023-11-06T00:57:33.131Z,96396.56
2023-11-06T01:00:08.635Z,96410.84
2023-11-06T01:02:42.356Z,96418.00
2023-11-06T01:15:54.134Z,96426.72
2023-11-06T01:18:27.538Z,96427.81
2023-11-06T01:21:01.170Z,96427.00
2023-11-06T01:23:34.406Z,96431.63
2023-11-06T01:26:08.172Z,96443.94
2023-11-06T01:28:41.441Z,96444.25
2023-11-06T01:41:32.110Z,96458.81
2023-11-06T01:44:12.146Z,96462.47
2023-11-06T01:46:45.517Z,96473.13
2023-11-06T01:49:19.157Z,96471.44
2023-11-06T01:51:54.190Z,96487.53
2023-11-06T01:54:28.162Z,96482.34
2023-11-06T01:57:04.597Z,96487.69
2023-11-06T02:10:00.127Z,96499.28
2023-11-06T02:12:42.151Z,96511.75
2023-11-06T02:15:15.379Z,96513.44
2023-11-06T02:17:49.137Z,96514.56
2023-11-06T02:20:22.865Z,96510.25
2023-11-06T02:23:05.467Z,96528.00
2023-11-06T02:36:17.071Z,96552.38
2023-11-06T02:38:52.235Z,96564.72
2023-11-06T02:41:26.131Z,96564.81
2023-11-06T02:43:59.376Z,96562.06
2023-11-06T02:46:33.083Z,96587.63
2023-11-06T03:03:10.094Z,96602.63
2023-11-06T03:05:50.186Z,96599.97
2023-11-06T03:08:23.382Z,96611.56
2023-11-06T03:10:57.404Z,96613.25
2023-11-06T03:13:31.266Z,96616.78
2023-11-06T03:16:12.086Z,96620.09
2023-11-06T03:18:47.284Z,96633.28
2023-11-06T03:28:11.074Z,96636.63
2023-11-06T03:30:44.675Z,96647.25
2023-11-06T03:33:18.103Z,96653.44
2023-11-06T03:35:53.275Z,96659.59
2023-11-06T03:38:27.122Z,96664.91
2023-11-06T03:41:00.871Z,96665.72
2023-11-06T03:43:34.131Z,96671.91
2023-11-06T03:56:08.105Z,96687.56
2023-11-06T03:58:41.350Z,96684.91
2023-11-06T04:01:15.118Z,96681.28
2023-11-06T04:03:48.366Z,96698.94
2023-11-06T04:06:22.158Z,96708.59
2023-11-06T04:08:55.386Z,96703.28
2023-11-06T04:21:46.070Z,96713.06
2023-11-06T04:24:26.098Z,96716.56
2023-11-06T04:26:59.314Z,96719.50
2023-11-06T04:29:33.086Z,96718.53
2023-11-06T04:32:07.010Z,96723.84
2023-11-06T04:34:40.151Z,96726.50
2023-11-06T04:37:15.263Z,96724.69
2023-11-06T04:50:04.193Z,96753.41
2023-11-06T04:52:47.094Z,96750.84
2023-11-06T04:55:20.332Z,96750.03
2023-11-06T04:57:54.083Z,96752.84
2023-11-06T05:00:27.392Z,96751.97
2023-11-06T05:03:01.205Z,96751.16
2023-11-06T05:16:14.373Z,96763.88
2023-11-06T05:18:48.365Z,96769.50
2023-11-06T05:21:29.108Z,96780.13
2023-11-06T05:24:02.365Z,96781.09
2023-11-06T05:26:36.107Z,96785.56
2023-11-06T05:43:13.064Z,96821.25
2023-11-06T05:45:53.067Z,96823.91
2023-11-06T05:48:26.426Z,96823.09
2023-11-06T05:51:00.097Z,96825.59
2023-11-06T05:53:33.341Z,96824.88
2023-11-06T05:56:07.099Z,96842.38
2023-11-06T05:58:42.240Z,96844.94
2023-11-06T06:08:31.131Z,96850.25
2023-11-06T06:11:05.706Z,96858.22
2023-11-06T06:13:39.092Z,96860.88
2023-11-06T06:16:14.291Z,96860.88
2023-11-06T06:18:48.325Z,96858.22
2023-11-06T06:21:21.375Z,96873.22
2023-11-06T06:23:55.090Z,96866.91
2023-11-06T06:37:27.066Z,96874.63
2023-11-06T06:40:00.440Z,96877.28
2023-11-06T06:42:34.085Z,96879.94
2023-11-06T06:45:08.900Z,96876.31
2023-11-06T06:47:42.143Z,96888.63
2023-11-06T07:04:19.077Z,96901.50
2023-11-06T07:06:59.206Z,96906.25
2023-11-06T07:09:32.449Z,96906.97
2023-11-06T07:12:06.094Z,96920.28
2023-11-06T07:14:39.358Z,96927.28
2023-11-06T07:17:13.153Z,96922.69
2023-11-06T07:30:25.114Z,96944.09
2023-11-06T07:32:58.360Z,96938.78
2023-11-06T07:35:32.221Z,96947.47
2023-11-06T07:38:05.348Z,96949.16
2023-11-06T07:40:39.087Z,96963.16
2023-11-06T07:43:12.356Z,96961.22
2023-11-06T07:56:03.046Z,96969.94
2023-11-06T07:58:43.901Z,96975.13
2023-11-06T08:01:17.366Z,96975.84
2023-11-06T08:03:51.152Z,96993.38
2023-11-06T08:06:24.317Z,96988.72
2023-11-06T08:08:58.070Z,96991.28
2023-11-06T08:22:18.111Z,97010.53
2023-11-06T08:24:51.378Z,97009.28
2023-11-06T08:27:25.240Z,97021.47
2023-11-06T08:29:58.304Z,97017.69
2023-11-06T08:32:32.135Z,97026.41
2023-11-06T08:35:06.589Z,97013.78
2023-11-06T08:37:42.098Z,97018.13
2023-11-06T08:50:52.078Z,97032.03
2023-11-06T08:53:27.251Z,97031.75
2023-11-06T08:56:01.123Z,97049.16
2023-11-06T08:58:34.427Z,97040.88
2023-11-06T09:01:08.079Z,97043.28
2023-11-06T09:03:41.340Z,97043.97
2023-11-06T09:16:32.051Z,97079.34
2023-11-06T09:19:13.106Z,97088.88
2023-11-06T09:21:46.354Z,97094.06
2023-11-06T09:24:20.070Z,97091.28
2023-11-06T09:26:53.618Z,97099.13
2023-11-06T09:43:19.969Z,97124.09
2023-11-06T09:45:53.315Z,97133.22
2023-11-06T09:48:28.172Z,97139.50
2023-11-06T09:51:09.808Z,97141.59
2023-11-06T09:53:53.104Z,97148.78
2023-11-06T09:56:28.379Z,97148.78
2023-11-06T09:59:04.104Z,97152.41
2023-11-06T10:09:31.047Z,97150.72
2023-11-06T10:12:24.055Z,97152.41
2023-11-06T10:14:59.244Z,97152.41
2023-11-06T10:17:33.120Z,97150.47
2023-11-06T10:20:10.894Z,97162.78
2023-11-06T10:23:04.111Z,97168.81
2023-11-06T10:36:22.231Z,97183.31
2023-11-06T10:39:08.791Z,97185.97
2023-11-06T10:41:51.068Z,97189.47
2023-11-06T10:44:24.539Z,97192.13
2023-11-06T10:47:00.083Z,97194.69
2023-11-06T10:49:35.678Z,97196.50
2023-11-06T10:52:14.128Z,97196.50
2023-11-06T11:02:44.177Z,97228.47
2023-11-06T11:05:25.223Z,97227.63
2023-11-06T11:08:01.344Z,97227.63
2023-11-06T11:10:35.050Z,97227.63
2023-11-06T11:13:08.564Z,97228.22
2023-11-06T11:15:42.070Z,97229.91
2023-11-06T11:18:16.299Z,97237.63
2023-11-06T11:31:40.050Z,97254.09
2023-11-06T11:34:33.203Z,97239.78
2023-11-06T11:37:49.055Z,97258.28
2023-11-06T11:40:29.333Z,97246.81
2023-11-06T11:43:39.602Z,97260.81
2023-11-06T11:56:58.044Z,97293.72
2023-11-06T11:59:50.077Z,97296.09
2023-11-06T12:02:29.357Z,97297.06
2023-11-06T12:05:20.148Z,97310.28
2023-11-06T12:07:53.296Z,97317.31
2023-11-06T12:10:35.097Z,97323.47
2023-11-06T12:13:18.616Z,97326.88
2023-11-06T12:23:04.073Z,97315.78
2023-11-06T12:25:38.790Z,97310.31
2023-11-06T12:28:14.054Z,97317.31
2023-11-06T12:30:54.235Z,97324.34
2023-11-06T12:33:39.166Z,97324.34
2023-11-06T12:36:25.759Z,97331.38
2023-11-06T12:39:07.087Z,97331.38
2023-11-06T12:49:44.053Z,97333.06
2023-11-06T12:52:28.090Z,97336.56
2023-11-06T12:55:01.290Z,97340.09
2023-11-06T12:57:35.066Z,97339.13
2023-11-06T13:00:09.963Z,97339.81
2023-11-06T13:02:43.129Z,97345.59
2023-11-06T13:16:33.104Z,97353.72
2023-11-06T13:19:06.562Z,97353.63
2023-11-06T13:21:40.321Z,97364.97
2023-11-06T13:24:14.561Z,97358.41
2023-11-06T13:26:48.104Z,97363.63
2023-11-06T13:29:21.349Z,97368.00
2023-11-06T13:31:57.070Z,97375.13
2023-11-06T13:45:07.086Z,97374.34
2023-11-06T13:47:42.260Z,97375.91
2023-11-06T13:50:16.355Z,97377.75
2023-11-06T13:52:50.311Z,97381.16
2023-11-06T13:55:24.063Z,97375.09
2023-11-06T13:57:57.382Z,97388.31
2023-11-06T14:10:48.049Z,97392.84
2023-11-06T14:13:29.071Z,97395.63
2023-11-06T14:16:02.387Z,97396.34
2023-11-06T14:18:36.107Z,97399.31
2023-11-06T14:21:09.391Z,97402.97
2023-11-06T14:23:43.128Z,97405.75
2023-11-06T14:39:20.030Z,97422.94
2023-11-06T14:42:00.317Z,97420.69
2023-11-06T14:44:34.371Z,97415.91
2023-11-06T14:47:15.119Z,97419.97
2023-11-06T14:49:48.375Z,97429.41
2023-11-06T14:52:22.234Z,97428.00
2023-11-06T15:05:34.076Z,97440.34
2023-11-06T15:08:07.258Z,97431.59
2023-11-06T15:10:41.062Z,97438.59
2023-11-06T15:13:14.322Z,97443.81
2023-11-06T15:15:48.076Z,97438.28
2023-11-06T15:18:21.538Z,97448.63
2023-11-06T15:31:12.031Z,97459.75
2023-11-06T15:33:52.123Z,97476.00
2023-11-06T15:36:25.346Z,97479.06
2023-11-06T15:38:59.075Z,97476.69
2023-11-06T15:41:32.486Z,97479.59
2023-11-06T15:44:06.061Z,97485.22
2023-11-06T15:57:18.248Z,97497.16
2023-11-06T15:59:51.371Z,97515.97
2023-11-06T16:02:25.131Z,97508.13
2023-11-06T16:04:58.296Z,97510.91
2023-11-06T16:07:32.061Z,97512.00
2023-11-06T16:10:07.568Z,97516.63
2023-11-06T16:12:43.062Z,97512.28
2023-11-06T16:25:53.078Z,97528.03
2023-11-06T16:28:28.244Z,97532.69
2023-11-06T16:31:02.098Z,97535.44
2023-11-06T16:33:35.540Z,97541.88
2023-11-06T16:36:09.067Z,97537.66
2023-11-06T16:38:42.290Z,97544.97
2023-11-06T16:51:33.037Z,97541.94
2023-11-06T16:54:13.104Z,97544.59
2023-11-06T16:56:46.298Z,97538.53
2023-11-06T16:59:20.240Z,97542.31
2023-11-06T17:01:53.316Z,97545.97
2023-11-06T17:18:09.139Z,97542.47
2023-11-06T17:20:42.477Z,97536.31
2023-11-06T17:23:16.074Z,97533.75
2023-11-06T17:25:49.375Z,97538.38
2023-11-06T17:28:24.648Z,97538.50
2023-11-06T17:30:59.288Z,97546.63
2023-11-06T17:33:35.131Z,97549.28
2023-11-06T17:44:02.034Z,97550.63
2023-11-06T17:46:42.067Z,97549.78
2023-11-06T17:49:17.226Z,97554.13
2023-11-06T17:51:51.048Z,97566.72
2023-11-06T17:54:24.252Z,97573.16
2023-11-06T17:57:04.067Z,97559.97
2023-11-06T18:10:49.071Z,97573.91
2023-11-06T18:13:22.344Z,97575.72
2023-11-06T18:15:56.089Z,97572.34
2023-11-06T18:18:29.519Z,97575.22
2023-11-06T18:21:03.061Z,97573.53
2023-11-06T18:23:36.338Z,97574.50
2023-11-06T18:39:52.062Z,97588.31
2023-11-06T18:42:25.733Z,97582.97
2023-11-06T18:44:59.097Z,97585.78
2023-11-06T18:47:32.431Z,97590.25
2023-11-06T18:50:06.055Z,97588.56
2023-11-06T18:52:39.339Z,97588.66
2023-11-06T19:05:30.037Z,97591.81
2023-11-06T19:08:10.248Z,97586.47
2023-11-06T19:10:43.358Z,97599.66
2023-11-06T19:13:17.048Z,97598.69
2023-11-06T19:15:50.307Z,97603.06
2023-11-06T19:18:24.180Z,97601.38
2023-11-06T19:31:36.066Z,97599.66
2023-11-06T19:34:09.355Z,97599.66
2023-11-06T19:36:43.071Z,97605.00
2023-11-06T19:39:16.468Z,97605.13
2023-11-06T19:41:50.119Z,97608.63
2023-11-06T19:58:27.024Z,97615.88
2023-11-06T20:01:07.062Z,97622.88
2023-11-06T20:03:40.505Z,97615.88
2023-11-06T20:06:15.116Z,97626.50
2023-11-06T20:08:48.357Z,97624.84
2023-11-06T20:11:22.311Z,97621.19
2023-11-06T20:13:57.225Z,97619.53
2023-11-06T20:26:46.069Z,97640.81
2023-11-06T20:29:28.058Z,97631.84
2023-11-06T20:32:01.331Z,97630.16
2023-11-06T20:34:35.043Z,97641.78
2023-11-06T20:37:08.354Z,97637.41
2023-11-06T20:53:24.086Z,97646.38
2023-11-06T20:55:57.400Z,97649.16
2023-11-06T20:58:31.061Z,97642.00
2023-11-06T21:01:05.114Z,97644.78
2023-11-06T21:03:38.168Z,97644.91
2023-11-06T21:06:11.333Z,97643.22
2023-11-06T21:08:47.110Z,97648.53
2023-11-06T21:18:32.104Z,97646.00
2023-11-06T21:21:13.058Z,97654.97
2023-11-06T21:23:48.277Z,97654.09
2023-11-06T21:26:22.071Z,97655.91
2023-11-06T21:28:55.444Z,97674.56
2023-11-06T21:31:29.051Z,97673.72
2023-11-06T21:34:02.528Z,97682.66
2023-11-06T21:46:53.011Z,97681.91
2023-11-06T21:49:33.100Z,97685.41
2023-11-06T21:52:06.644Z,97682.88
2023-11-06T21:54:51.064Z,97690.88
2023-11-06T21:57:28.275Z,97678.50
2023-11-06T22:13:44.051Z,97691.81
2023-11-06T22:16:17.353Z,97700.81
2023-11-06T22:18:51.332Z,97709.75
2023-11-06T22:21:25.317Z,97709.75
2023-11-06T22:23:59.116Z,97714.31
2023-11-06T22:26:32.306Z,97713.38
2023-11-06T22:29:08.068Z,97723.16
2023-11-06T22:38:53.075Z,97719.78
2023-11-06T22:41:33.086Z,97713.59
2023-11-06T22:44:08.310Z,97718.06
2023-11-06T22:46:43.034Z,97721.69
2023-11-06T22:49:16.316Z,97717.25
2023-11-06T22:51:50.122Z,97719.91
2023-11-06T22:54:23.823Z,97733.22
2023-11-06T23:07:14.006Z,97728.09
2023-11-06T23:09:54.068Z,97726.41
2023-11-06T23:12:27.303Z,97723.72
2023-11-06T23:15:01.155Z,97724.69
2023-11-06T23:17:34.332Z,97728.09
2023-11-06T23:33:50.136Z,97733.28
2023-11-06T23:36:23.282Z,97729.94
2023-11-06T23:38:57.082Z,97734.38
2023-11-06T23:41:39.891Z,97730.00
2023-11-06T23:44:23.026Z,97742.38
2023-11-06T23:46:56.278Z,97755.66
2023-11-06T23:59:02.046Z,97755.78
